sensor_id;sensor_type;location;lat;lon;timestamp;pressure;altitude;pressure_sealevel;temperature;humidity
53960;BME280;39866;48.638;-2.020;2022-11-15T00:01:29;100347.66;;;14.25;70.11
53960;BME280;39866;48.638;-2.020;2022-11-15T00:03:54;100334.19;;;14.26;70.46
53960;BME280;39866;48.638;-2.020;2022-11-15T00:06:20;100316.06;;;14.31;70.06
53960;BME280;39866;48.638;-2.020;2022-11-15T00:08:46;100310.56;;;14.17;70.14
53960;BME280;39866;48.638;-2.020;2022-11-15T00:11:12;100314.97;;;14.18;70.52
53960;BME280;39866;48.638;-2.020;2022-11-15T00:13:37;100306.13;;;14.16;70.28
53960;BME280;39866;48.638;-2.020;2022-11-15T00:16:03;100308.75;;;14.18;70.77
53960;BME280;39866;48.638;-2.020;2022-11-15T00:18:29;100298.41;;;14.27;70.44
53960;BME280;39866;48.638;-2.020;2022-11-15T00:20:56;100279.16;;;14.21;70.48
53960;BME280;39866;48.638;-2.020;2022-11-15T00:23:21;100267.97;;;14.12;70.57
53960;BME280;39866;48.638;-2.020;2022-11-15T00:25:47;100264.31;;;14.13;70.70
53960;BME280;39866;48.638;-2.020;2022-11-15T00:28:12;100263.28;;;14.16;70.70
53960;BME280;39866;48.638;-2.020;2022-11-15T00:30:37;100256.22;;;14.15;70.87
53960;BME280;39866;48.638;-2.020;2022-11-15T00:33:06;100246.44;;;14.14;71.07
53960;BME280;39866;48.638;-2.020;2022-11-15T00:35:32;100252.84;;;14.29;70.32
53960;BME280;39866;48.638;-2.020;2022-11-15T00:38:00;100229.38;;;14.34;70.35
53960;BME280;39866;48.638;-2.020;2022-11-15T00:40:25;100219.50;;;14.34;69.95
53960;BME280;39866;48.638;-2.020;2022-11-15T00:42:51;100219.50;;;14.34;69.63
53960;BME280;39866;48.638;-2.020;2022-11-15T00:45:16;100205.16;;;14.35;70.26
53960;BME280;39866;48.638;-2.020;2022-11-15T00:47:44;100201.72;;;14.33;70.22
53960;BME280;39866;48.638;-2.020;2022-11-15T00:50:10;100201.72;;;14.33;69.82
53960;BME280;39866;48.638;-2.020;2022-11-15T00:52:36;100197.69;;;14.42;69.65
53960;BME280;39866;48.638;-2.020;2022-11-15T00:55:01;100197.75;;;14.41;69.66
53960;BME280;39866;48.638;-2.020;2022-11-15T00:57:27;100192.25;;;14.44;69.64
53960;BME280;39866;48.638;-2.020;2022-11-15T00:59:52;100165.47;;;14.44;69.92
53960;BME280;39866;48.638;-2.020;2022-11-15T01:02:17;100182.97;;;14.51;69.37
53960;BME280;39866;48.638;-2.020;2022-11-15T01:04:43;100173.81;;;14.55;69.04
53960;BME280;39866;48.638;-2.020;2022-11-15T01:07:08;100153.72;;;14.46;69.09
53960;BME280;39866;48.638;-2.020;2022-11-15T01:09:33;100169.16;;;14.58;69.13
53960;BME280;39866;48.638;-2.020;2022-11-15T01:11:59;100138.31;;;14.34;69.94
53960;BME280;39866;48.638;-2.020;2022-11-15T01:14:24;100140.50;;;14.43;69.68
53960;BME280;39866;48.638;-2.020;2022-11-15T01:16:50;100136.31;;;14.55;69.34
53960;BME280;39866;48.638;-2.020;2022-11-15T01:19:15;100133.38;;;14.59;69.39
53960;BME280;39866;48.638;-2.020;2022-11-15T01:21:40;100113.63;;;14.45;69.07
53960;BME280;39866;48.638;-2.020;2022-11-15T01:24:07;100102.75;;;14.48;69.52
53960;BME280;39866;48.638;-2.020;2022-11-15T01:26:32;100105.59;;;14.45;69.80
53960;BME280;39866;48.638;-2.020;2022-11-15T01:28:57;100107.25;;;14.47;70.15
53960;BME280;39866;48.638;-2.020;2022-11-15T01:31:23;100103.84;;;14.44;70.11
53960;BME280;39866;48.638;-2.020;2022-11-15T01:33:48;100097.19;;;14.35;70.44
53960;BME280;39866;48.638;-2.020;2022-11-15T01:36:16;100086.47;;;14.35;70.72
53960;BME280;39866;48.638;-2.020;2022-11-15T01:38:42;100084.63;;;14.20;71.17
53960;BME280;39866;48.638;-2.020;2022-11-15T01:41:15;100072.09;;;14.20;71.36
53960;BME280;39866;48.638;-2.020;2022-11-15T01:43:41;100068.16;;;14.27;71.19
53960;BME280;39866;48.638;-2.020;2022-11-15T01:46:33;100058.31;;;14.28;71.58
53960;BME280;39866;48.638;-2.020;2022-11-15T01:49:21;100056.75;;;14.24;71.20
53960;BME280;39866;48.638;-2.020;2022-11-15T01:51:47;100051.50;;;14.22;71.03
53960;BME280;39866;48.638;-2.020;2022-11-15T01:54:16;100046.91;;;14.24;71.18
53960;BME280;39866;48.638;-2.020;2022-11-15T01:56:46;100040.22;;;14.16;71.20
53960;BME280;39866;48.638;-2.020;2022-11-15T01:59:13;100043.47;;;14.22;71.06
53960;BME280;39866;48.638;-2.020;2022-11-15T02:01:39;100023.75;;;14.23;70.95
53960;BME280;39866;48.638;-2.020;2022-11-15T02:04:16;100026.81;;;14.33;70.73
53960;BME280;39866;48.638;-2.020;2022-11-15T02:06:43;100003.19;;;14.08;71.64
53960;BME280;39866;48.638;-2.020;2022-11-15T02:09:09;100002.16;;;14.10;71.48
53960;BME280;39866;48.638;-2.020;2022-11-15T02:11:36;99990.94;;;14.20;71.24
53960;BME280;39866;48.638;-2.020;2022-11-15T02:14:02;99978.41;;;14.20;70.63
53960;BME280;39866;48.638;-2.020;2022-11-15T02:22:47;99991.75;;;14.37;70.59
53960;BME280;39866;48.638;-2.020;2022-11-15T02:27:54;99982.78;;;14.54;70.71
53960;BME280;39866;48.638;-2.020;2022-11-15T02:31:08;99974.72;;;14.38;71.29
53960;BME280;39866;48.638;-2.020;2022-11-15T02:33:27;99953.63;;;14.32;72.10
53960;BME280;39866;48.638;-2.020;2022-11-15T02:36:05;99947.19;;;14.21;73.07
53960;BME280;39866;48.638;-2.020;2022-11-15T02:41:30;99943.00;;;13.99;74.17
53960;BME280;39866;48.638;-2.020;2022-11-15T02:46:36;99940.16;;;14.02;75.15
53960;BME280;39866;48.638;-2.020;2022-11-15T02:49:24;99905.97;;;13.92;75.40
53960;BME280;39866;48.638;-2.020;2022-11-15T02:51:51;99906.66;;;13.95;75.98
53960;BME280;39866;48.638;-2.020;2022-11-15T02:54:22;99912.19;;;13.92;75.98
53960;BME280;39866;48.638;-2.020;2022-11-15T02:56:48;99902.84;;;13.99;75.72
53960;BME280;39866;48.638;-2.020;2022-11-15T03:01:56;99877.22;;;14.11;75.31
53960;BME280;39866;48.638;-2.020;2022-11-15T03:07:29;99863.50;;;14.17;75.08
53960;BME280;39866;48.638;-2.020;2022-11-15T03:10:12;99854.09;;;14.10;75.11
53960;BME280;39866;48.638;-2.020;2022-11-15T03:12:54;99841.41;;;14.13;74.88
53960;BME280;39866;48.638;-2.020;2022-11-15T03:15:32;99823.78;;;14.09;74.85
53960;BME280;39866;48.638;-2.020;2022-11-15T03:18:01;99839.69;;;14.12;74.62
53960;BME280;39866;48.638;-2.020;2022-11-15T03:20:28;99812.81;;;14.14;74.63
53960;BME280;39866;48.638;-2.020;2022-11-15T03:22:58;99833.63;;;14.25;74.41
53960;BME280;39866;48.638;-2.020;2022-11-15T03:25:28;99828.03;;;14.44;73.54
53960;BME280;39866;48.638;-2.020;2022-11-15T03:27:57;99813.69;;;14.45;73.14
53960;BME280;39866;48.638;-2.020;2022-11-15T03:30:24;99811.38;;;14.54;73.00
53960;BME280;39866;48.638;-2.020;2022-11-15T03:32:59;99804.75;;;14.60;72.94
53960;BME280;39866;48.638;-2.020;2022-11-15T03:35:27;99797.41;;;14.49;73.25
53960;BME280;39866;48.638;-2.020;2022-11-15T03:40:57;99801.69;;;14.52;73.12
53960;BME280;39866;48.638;-2.020;2022-11-15T03:46:23;99793.38;;;14.56;73.21
53960;BME280;39866;48.638;-2.020;2022-11-15T03:48:52;99777.13;;;14.59;73.06
53960;BME280;39866;48.638;-2.020;2022-11-15T03:51:18;99764.97;;;14.54;73.06
53960;BME280;39866;48.638;-2.020;2022-11-15T03:53:45;99761.16;;;14.58;73.02
53960;BME280;39866;48.638;-2.020;2022-11-15T03:56:11;99764.97;;;14.54;73.43
53960;BME280;39866;48.638;-2.020;2022-11-15T03:58:36;99741.72;;;14.54;73.88
53960;BME280;39866;48.638;-2.020;2022-11-15T04:01:01;99753.69;;;14.63;73.53
53960;BME280;39866;48.638;-2.020;2022-11-15T04:03:27;99742.13;;;14.63;73.50
53960;BME280;39866;48.638;-2.020;2022-11-15T04:05:52;99744.31;;;14.56;74.28
53960;BME280;39866;48.638;-2.020;2022-11-15T04:08:17;99697.94;;;14.25;75.87
53960;BME280;39866;48.638;-2.020;2022-11-15T04:10:43;99736.91;;;14.45;76.25
53960;BME280;39866;48.638;-2.020;2022-11-15T04:13:09;99730.88;;;14.42;76.48
53960;BME280;39866;48.638;-2.020;2022-11-15T04:15:34;99714.59;;;14.30;77.32
53960;BME280;39866;48.638;-2.020;2022-11-15T04:18:00;99723.38;;;14.32;77.55
53960;BME280;39866;48.638;-2.020;2022-11-15T04:20:26;99692.97;;;14.33;77.69
53960;BME280;39866;48.638;-2.020;2022-11-15T04:23:12;99689.13;;;14.23;77.80
53960;BME280;39866;48.638;-2.020;2022-11-15T04:25:59;99691.22;;;14.18;78.02
53960;BME280;39866;48.638;-2.020;2022-11-15T04:28:25;99699.16;;;14.20;77.99
53960;BME280;39866;48.638;-2.020;2022-11-15T04:30:51;99711.50;;;14.22;78.14
53960;BME280;39866;48.638;-2.020;2022-11-15T04:33:16;99713.31;;;14.22;78.11
53960;BME280;39866;48.638;-2.020;2022-11-15T04:35:42;99697.44;;;14.19;78.57
53960;BME280;39866;48.638;-2.020;2022-11-15T04:38:09;99707.41;;;14.17;78.92
53960;BME280;39866;48.638;-2.020;2022-11-15T04:40:36;99692.88;;;14.21;78.52
53960;BME280;39866;48.638;-2.020;2022-11-15T04:43:01;99680.25;;;14.23;78.64
53960;BME280;39866;48.638;-2.020;2022-11-15T04:45:27;99689.63;;;14.30;78.32
53960;BME280;39866;48.638;-2.020;2022-11-15T04:47:52;99675.38;;;14.29;78.28
53960;BME280;39866;48.638;-2.020;2022-11-15T04:50:18;99678.63;;;14.34;78.34
53960;BME280;39866;48.638;-2.020;2022-11-15T04:52:50;99663.72;;;14.45;77.92
53960;BME280;39866;48.638;-2.020;2022-11-15T04:55:16;99663.06;;;14.41;77.69
53960;BME280;39866;48.638;-2.020;2022-11-15T04:57:41;99657.97;;;14.36;78.11
53960;BME280;39866;48.638;-2.020;2022-11-15T05:00:12;99648.03;;;14.38;77.78
53960;BME280;39866;48.638;-2.020;2022-11-15T05:02:38;99645.84;;;14.31;78.25
53960;BME280;39866;48.638;-2.020;2022-11-15T05:05:24;99663.03;;;14.27;78.17
53960;BME280;39866;48.638;-2.020;2022-11-15T05:07:49;99638.38;;;14.36;78.33
53960;BME280;39866;48.638;-2.020;2022-11-15T05:10:14;99643.53;;;14.39;78.46
53960;BME280;39866;48.638;-2.020;2022-11-15T05:12:40;99623.44;;;14.32;78.83
53960;BME280;39866;48.638;-2.020;2022-11-15T05:15:05;99596.13;;;14.27;78.70
53960;BME280;39866;48.638;-2.020;2022-11-15T05:17:31;99601.28;;;14.30;79.23
53960;BME280;39866;48.638;-2.020;2022-11-15T05:19:56;99591.72;;;14.26;79.41
53960;BME280;39866;48.638;-2.020;2022-11-15T05:22:22;99595.75;;;14.33;79.06
53960;BME280;39866;48.638;-2.020;2022-11-15T05:24:47;99581.69;;;14.29;79.41
53960;BME280;39866;48.638;-2.020;2022-11-15T05:27:13;99582.06;;;14.23;79.04
53960;BME280;39866;48.638;-2.020;2022-11-15T05:29:38;99572.88;;;14.27;79.22
53960;BME280;39866;48.638;-2.020;2022-11-15T05:32:05;99562.34;;;14.24;79.50
53960;BME280;39866;48.638;-2.020;2022-11-15T05:34:31;99568.47;;;14.26;79.26
53960;BME280;39866;48.638;-2.020;2022-11-15T05:36:57;99571.91;;;14.28;79.33
53960;BME280;39866;48.638;-2.020;2022-11-15T05:39:24;99550.50;;;14.28;79.49
53960;BME280;39866;48.638;-2.020;2022-11-15T05:41:53;99553.56;;;14.22;79.44
53960;BME280;39866;48.638;-2.020;2022-11-15T05:44:22;99558.16;;;14.20;79.50
53960;BME280;39866;48.638;-2.020;2022-11-15T05:46:50;99555.28;;;14.23;79.85
53960;BME280;39866;48.638;-2.020;2022-11-15T05:49:20;99564.28;;;14.22;79.57
53960;BME280;39866;48.638;-2.020;2022-11-15T05:51:48;99573.72;;;14.28;79.42
53960;BME280;39866;48.638;-2.020;2022-11-15T05:54:14;99527.56;;;14.24;79.40
53960;BME280;39866;48.638;-2.020;2022-11-15T05:56:41;99543.44;;;14.27;79.51
53960;BME280;39866;48.638;-2.020;2022-11-15T05:59:08;99551.94;;;14.20;79.60
53960;BME280;39866;48.638;-2.020;2022-11-15T06:01:33;99568.47;;;14.26;79.57
53960;BME280;39866;48.638;-2.020;2022-11-15T06:03:59;99559.38;;;14.43;79.21
53960;BME280;39866;48.638;-2.020;2022-11-15T06:06:24;99551.47;;;14.42;79.20
53960;BME280;39866;48.638;-2.020;2022-11-15T06:08:52;99552.81;;;14.34;79.53
53960;BME280;39866;48.638;-2.020;2022-11-15T06:11:17;99539.78;;;14.43;79.38
53960;BME280;39866;48.638;-2.020;2022-11-15T06:13:42;99542.47;;;14.43;79.27
53960;BME280;39866;48.638;-2.020;2022-11-15T06:16:08;99531.94;;;14.40;79.22
53960;BME280;39866;48.638;-2.020;2022-11-15T06:18:34;99547.81;;;14.43;79.36
53960;BME280;39866;48.638;-2.020;2022-11-15T06:21:00;99531.19;;;14.37;79.52
53960;BME280;39866;48.638;-2.020;2022-11-15T06:23:26;99533.38;;;14.45;79.62
53960;BME280;39866;48.638;-2.020;2022-11-15T06:25:52;99512.06;;;14.44;79.42
53960;BME280;39866;48.638;-2.020;2022-11-15T06:28:17;99511.88;;;14.32;79.68
53960;BME280;39866;48.638;-2.020;2022-11-15T06:30:42;99510.81;;;14.35;79.87
53960;BME280;39866;48.638;-2.020;2022-11-15T06:33:08;99501.16;;;14.32;79.85
53960;BME280;39866;48.638;-2.020;2022-11-15T06:35:35;99510.63;;;14.38;79.87
53960;BME280;39866;48.638;-2.020;2022-11-15T06:38:18;99493.13;;;14.32;79.96
53960;BME280;39866;48.638;-2.020;2022-11-15T06:40:44;99488.94;;;14.28;80.13
53960;BME280;39866;48.638;-2.020;2022-11-15T06:43:09;99488.53;;;14.34;79.80
53960;BME280;39866;48.638;-2.020;2022-11-15T06:45:34;99484.34;;;14.30;79.63
53960;BME280;39866;48.638;-2.020;2022-11-15T06:48:00;99479.00;;;14.30;79.73
53960;BME280;39866;48.638;-2.020;2022-11-15T06:50:26;99474.75;;;14.41;79.57
53960;BME280;39866;48.638;-2.020;2022-11-15T06:52:51;99481.25;;;14.36;79.32
53960;BME280;39866;48.638;-2.020;2022-11-15T06:55:16;99470.56;;;14.36;79.14
53960;BME280;39866;48.638;-2.020;2022-11-15T06:57:49;99464.94;;;14.41;79.11
53960;BME280;39866;48.638;-2.020;2022-11-15T07:00:17;99486.97;;;14.45;78.90
53960;BME280;39866;48.638;-2.020;2022-11-15T07:02:43;99494.47;;;14.40;79.16
53960;BME280;39866;48.638;-2.020;2022-11-15T07:05:08;99478.22;;;14.43;79.10
53960;BME280;39866;48.638;-2.020;2022-11-15T07:07:33;99478.94;;;14.45;78.86
53960;BME280;39866;48.638;-2.020;2022-11-15T07:09:59;99494.09;;;14.46;79.02
53960;BME280;39866;48.638;-2.020;2022-11-15T07:12:24;99480.59;;;14.47;79.03
53960;BME280;39866;48.638;-2.020;2022-11-15T07:14:49;99513.00;;;14.43;79.34
53960;BME280;39866;48.638;-2.020;2022-11-15T07:17:15;99503.44;;;14.53;79.25
53960;BME280;39866;48.638;-2.020;2022-11-15T07:19:40;99477.63;;;14.52;79.39
53960;BME280;39866;48.638;-2.020;2022-11-15T07:22:05;99492.66;;;14.54;79.51
53960;BME280;39866;48.638;-2.020;2022-11-15T07:24:30;99498.47;;;14.47;79.49
53960;BME280;39866;48.638;-2.020;2022-11-15T07:26:56;99501.66;;;14.53;79.15
53960;BME280;39866;48.638;-2.020;2022-11-15T07:29:21;99484.69;;;14.53;79.70
53960;BME280;39866;48.638;-2.020;2022-11-15T07:31:46;99502.69;;;14.51;79.77
53960;BME280;39866;48.638;-2.020;2022-11-15T07:34:12;99498.09;;;14.53;79.99
53960;BME280;39866;48.638;-2.020;2022-11-15T07:36:37;99497.03;;;14.55;79.81
53960;BME280;39866;48.638;-2.020;2022-11-15T07:39:02;99502.69;;;14.51;79.79
53960;BME280;39866;48.638;-2.020;2022-11-15T07:41:28;99494.78;;;14.49;80.00
53960;BME280;39866;48.638;-2.020;2022-11-15T07:43:54;99497.53;;;14.62;79.77
53960;BME280;39866;48.638;-2.020;2022-11-15T07:46:19;99511.16;;;14.72;80.06
53960;BME280;39866;48.638;-2.020;2022-11-15T07:48:45;99463.78;;;14.72;80.09
53960;BME280;39866;48.638;-2.020;2022-11-15T07:51:12;99461.63;;;14.65;79.93
53960;BME280;39866;48.638;-2.020;2022-11-15T07:53:38;99456.72;;;14.71;80.05
53960;BME280;39866;48.638;-2.020;2022-11-15T07:56:06;99437.88;;;14.73;80.17
53960;BME280;39866;48.638;-2.020;2022-11-15T07:58:32;99427.38;;;14.70;80.41
53960;BME280;39866;48.638;-2.020;2022-11-15T08:00:57;99437.00;;;14.72;80.24
53960;BME280;39866;48.638;-2.020;2022-11-15T08:03:23;99438.53;;;14.76;80.71
53960;BME280;39866;48.638;-2.020;2022-11-15T08:05:51;99458.25;;;14.75;80.18
53960;BME280;39866;48.638;-2.020;2022-11-15T08:08:17;99451.38;;;14.71;80.65
53960;BME280;39866;48.638;-2.020;2022-11-15T08:10:42;99479.47;;;14.78;80.55
53960;BME280;39866;48.638;-2.020;2022-11-15T08:13:09;99477.25;;;14.85;80.38
53960;BME280;39866;48.638;-2.020;2022-11-15T08:15:35;99451.09;;;14.89;80.33
53960;BME280;39866;48.638;-2.020;2022-11-15T08:18:06;99461.31;;;14.96;80.26
53960;BME280;39866;48.638;-2.020;2022-11-15T08:20:33;99459.44;;;14.84;80.55
53960;BME280;39866;48.638;-2.020;2022-11-15T08:23:01;99464.16;;;14.80;81.07
53960;BME280;39866;48.638;-2.020;2022-11-15T08:25:27;99446.28;;;14.94;80.56
53960;BME280;39866;48.638;-2.020;2022-11-15T08:27:54;99446.50;;;14.91;80.52
53960;BME280;39866;48.638;-2.020;2022-11-15T08:30:20;99458.50;;;14.98;80.36
53960;BME280;39866;48.638;-2.020;2022-11-15T08:32:46;99456.41;;;15.03;80.19
53960;BME280;39866;48.638;-2.020;2022-11-15T08:35:12;99462.50;;;15.05;79.85
53960;BME280;39866;48.638;-2.020;2022-11-15T08:37:37;99469.47;;;14.95;80.42
53960;BME280;39866;48.638;-2.020;2022-11-15T08:40:04;99467.72;;;14.94;80.34
53960;BME280;39866;48.638;-2.020;2022-11-15T08:42:29;99475.91;;;15.05;80.23
53960;BME280;39866;48.638;-2.020;2022-11-15T08:44:54;99466.31;;;15.15;80.15
53960;BME280;39866;48.638;-2.020;2022-11-15T08:47:20;99476.69;;;15.07;80.62
53960;BME280;39866;48.638;-2.020;2022-11-15T08:49:45;99452.25;;;15.11;80.52
53960;BME280;39866;48.638;-2.020;2022-11-15T08:52:11;99453.84;;;15.14;80.52
53960;BME280;39866;48.638;-2.020;2022-11-15T08:54:36;99441.22;;;15.16;80.50
53960;BME280;39866;48.638;-2.020;2022-11-15T08:57:01;99460.38;;;15.10;80.74
53960;BME280;39866;48.638;-2.020;2022-11-15T08:59:26;99461.81;;;15.28;80.23
53960;BME280;39866;48.638;-2.020;2022-11-15T09:01:52;99478.44;;;15.33;80.23
53960;BME280;39866;48.638;-2.020;2022-11-15T09:04:17;99477.47;;;15.34;80.27
53960;BME280;39866;48.638;-2.020;2022-11-15T09:06:43;99483.16;;;15.30;80.33
53960;BME280;39866;48.638;-2.020;2022-11-15T09:09:08;99464.16;;;15.20;80.48
53960;BME280;39866;48.638;-2.020;2022-11-15T09:11:33;99490.34;;;15.29;80.81
53960;BME280;39866;48.638;-2.020;2022-11-15T09:13:59;99498.53;;;15.41;80.56
53960;BME280;39866;48.638;-2.020;2022-11-15T09:16:24;99480.09;;;15.49;80.19
53960;BME280;39866;48.638;-2.020;2022-11-15T09:18:49;99478.38;;;15.48;80.17
53960;BME280;39866;48.638;-2.020;2022-11-15T09:21:15;99481.59;;;15.53;80.36
53960;BME280;39866;48.638;-2.020;2022-11-15T09:23:40;99470.84;;;15.53;80.00
53960;BME280;39866;48.638;-2.020;2022-11-15T09:26:06;99471.38;;;15.58;80.33
53960;BME280;39866;48.638;-2.020;2022-11-15T09:28:32;99473.66;;;15.64;79.88
53960;BME280;39866;48.638;-2.020;2022-11-15T09:31:02;99472.38;;;15.57;80.13
53960;BME280;39866;48.638;-2.020;2022-11-15T09:33:28;99482.47;;;15.66;80.00
53960;BME280;39866;48.638;-2.020;2022-11-15T09:35:54;99459.81;;;15.57;80.21
53960;BME280;39866;48.638;-2.020;2022-11-15T09:38:24;99482.88;;;15.60;80.03
53960;BME280;39866;48.638;-2.020;2022-11-15T09:40:52;99477.53;;;15.60;80.09
53960;BME280;39866;48.638;-2.020;2022-11-15T09:49:00;99479.72;;;15.80;79.28
53960;BME280;39866;48.638;-2.020;2022-11-15T09:51:33;99484.63;;;15.87;79.05
53960;BME280;39866;48.638;-2.020;2022-11-15T09:56:39;99498.28;;;15.96;78.84
53960;BME280;39866;48.638;-2.020;2022-11-15T10:04:59;99531.66;;;15.92;79.76
53960;BME280;39866;48.638;-2.020;2022-11-15T10:10:38;99520.69;;;15.82;80.52
53960;BME280;39866;48.638;-2.020;2022-11-15T10:13:04;99541.75;;;15.89;80.31
53960;BME280;39866;48.638;-2.020;2022-11-15T10:15:30;99532.81;;;15.75;80.39
53960;BME280;39866;48.638;-2.020;2022-11-15T10:18:09;99546.09;;;15.64;80.50
53960;BME280;39866;48.638;-2.020;2022-11-15T10:20:46;99545.63;;;15.45;80.70
53960;BME280;39866;48.638;-2.020;2022-11-15T10:23:15;99546.59;;;15.44;80.66
53960;BME280;39866;48.638;-2.020;2022-11-15T10:25:41;99547.31;;;15.33;81.04
53960;BME280;39866;48.638;-2.020;2022-11-15T10:30:51;99535.59;;;15.34;80.32
53960;BME280;39866;48.638;-2.020;2022-11-15T10:33:18;99538.22;;;15.35;80.35
53960;BME280;39866;48.638;-2.020;2022-11-15T10:35:45;99536.06;;;15.41;80.24
53960;BME280;39866;48.638;-2.020;2022-11-15T10:38:11;99540.31;;;15.30;80.45
53960;BME280;39866;48.638;-2.020;2022-11-15T10:40:39;99531.03;;;15.36;80.43
53960;BME280;39866;48.638;-2.020;2022-11-15T10:45:36;99519.97;;;15.41;80.34
53960;BME280;39866;48.638;-2.020;2022-11-15T10:50:46;99524.63;;;15.51;80.04
53960;BME280;39866;48.638;-2.020;2022-11-15T10:53:25;99524.81;;;15.48;79.44
53960;BME280;39866;48.638;-2.020;2022-11-15T10:55:55;99516.59;;;15.64;79.11
53960;BME280;39866;48.638;-2.020;2022-11-15T10:58:33;99522.72;;;15.66;78.95
53960;BME280;39866;48.638;-2.020;2022-11-15T11:01:28;99507.59;;;15.65;78.88
53960;BME280;39866;48.638;-2.020;2022-11-15T11:06:27;99516.09;;;15.84;78.24
53960;BME280;39866;48.638;-2.020;2022-11-15T11:09:02;99525.66;;;15.89;76.66
53960;BME280;39866;48.638;-2.020;2022-11-15T11:11:49;99531.44;;;15.95;75.46
53960;BME280;39866;48.638;-2.020;2022-11-15T11:14:29;99503.72;;;15.95;75.05
53960;BME280;39866;48.638;-2.020;2022-11-15T11:20:00;99496.97;;;16.02;73.87
53960;BME280;39866;48.638;-2.020;2022-11-15T11:25:22;99492.88;;;15.83;73.96
53960;BME280;39866;48.638;-2.020;2022-11-15T11:28:10;99504.06;;;15.77;74.01
53960;BME280;39866;48.638;-2.020;2022-11-15T11:31:10;99497.50;;;15.81;74.09
53960;BME280;39866;48.638;-2.020;2022-11-15T11:34:09;99488.50;;;15.82;74.22
53960;BME280;39866;48.638;-2.020;2022-11-15T11:36:45;99482.25;;;15.95;73.42
53960;BME280;39866;48.638;-2.020;2022-11-15T11:39:18;99476.88;;;15.95;73.26
53960;BME280;39866;48.638;-2.020;2022-11-15T11:42:13;99476.47;;;15.75;73.63
53960;BME280;39866;48.638;-2.020;2022-11-15T11:45:05;99471.00;;;15.90;73.32
53960;BME280;39866;48.638;-2.020;2022-11-15T11:47:39;99474.28;;;16.19;72.75
53960;BME280;39866;48.638;-2.020;2022-11-15T11:50:18;99466.63;;;16.38;71.88
53960;BME280;39866;48.638;-2.020;2022-11-15T11:52:52;99464.31;;;16.45;71.40
53960;BME280;39866;48.638;-2.020;2022-11-15T11:55:23;99457.47;;;16.41;70.97
53960;BME280;39866;48.638;-2.020;2022-11-15T12:03:47;99450.25;;;16.54;70.22
53960;BME280;39866;48.638;-2.020;2022-11-15T12:09:11;99425.78;;;16.46;69.20
53960;BME280;39866;48.638;-2.020;2022-11-15T12:16:55;99412.44;;;16.44;69.09
53960;BME280;39866;48.638;-2.020;2022-11-15T12:19:22;99432.50;;;16.51;68.81
53960;BME280;39866;48.638;-2.020;2022-11-15T12:22:12;99424.09;;;16.56;68.65
53960;BME280;39866;48.638;-2.020;2022-11-15T12:24:52;99416.25;;;16.66;68.75
53960;BME280;39866;48.638;-2.020;2022-11-15T12:27:38;99425.22;;;16.77;68.73
53960;BME280;39866;48.638;-2.020;2022-11-15T12:30:17;99419.38;;;16.59;68.40
53960;BME280;39866;48.638;-2.020;2022-11-15T12:32:57;99412.44;;;16.44;67.05
53960;BME280;39866;48.638;-2.020;2022-11-15T12:37:50;99405.47;;;16.42;68.28
53960;BME280;39866;48.638;-2.020;2022-11-15T12:40:17;99410.09;;;16.40;68.33
53960;BME280;39866;48.638;-2.020;2022-11-15T12:43:03;99411.94;;;16.39;67.18
53960;BME280;39866;48.638;-2.020;2022-11-15T12:45:37;99404.72;;;16.64;67.52
53960;BME280;39866;48.638;-2.020;2022-11-15T12:50:56;99399.84;;;16.57;67.94
53960;BME280;39866;48.638;-2.020;2022-11-15T12:58:48;99395.56;;;16.79;67.91
53960;BME280;39866;48.638;-2.020;2022-11-15T13:06:48;99407.78;;;16.59;68.56
53960;BME280;39866;48.638;-2.020;2022-11-15T13:12:08;99406.97;;;16.46;68.73
53960;BME280;39866;48.638;-2.020;2022-11-15T13:19:53;99395.88;;;16.50;68.56
53960;BME280;39866;48.638;-2.020;2022-11-15T13:22:22;99391.88;;;16.56;69.36
53960;BME280;39866;48.638;-2.020;2022-11-15T13:25:15;99379.13;;;16.47;68.49
53960;BME280;39866;48.638;-2.020;2022-11-15T13:27:45;99386.28;;;16.59;68.70
53960;BME280;39866;48.638;-2.020;2022-11-15T13:30:31;99387.13;;;16.59;68.43
53960;BME280;39866;48.638;-2.020;2022-11-15T13:33:06;99385.28;;;16.60;68.33
53960;BME280;39866;48.638;-2.020;2022-11-15T13:35:38;99391.66;;;16.59;67.80
53960;BME280;39866;48.638;-2.020;2022-11-15T13:38:05;99393.69;;;16.55;68.93
53960;BME280;39866;48.638;-2.020;2022-11-15T13:40:37;99390.50;;;16.26;70.02
53960;BME280;39866;48.638;-2.020;2022-11-15T13:48:34;99375.91;;;15.30;69.35
53960;BME280;39866;48.638;-2.020;2022-11-15T13:51:02;99378.50;;;15.31;68.56
53960;BME280;39866;48.638;-2.020;2022-11-15T13:53:31;99393.50;;;15.34;68.64
53960;BME280;39866;48.638;-2.020;2022-11-15T13:55:58;99372.81;;;15.36;68.13
53960;BME280;39866;48.638;-2.020;2022-11-15T13:58:23;99379.22;;;15.46;66.96
53960;BME280;39866;48.638;-2.020;2022-11-15T14:00:58;99385.03;;;15.66;65.83
53960;BME280;39866;48.638;-2.020;2022-11-15T14:03:30;99377.91;;;15.90;66.04
53960;BME280;39866;48.638;-2.020;2022-11-15T14:06:06;99379.50;;;16.05;65.90
53960;BME280;39866;48.638;-2.020;2022-11-15T14:08:35;99382.81;;;16.09;65.19
53960;BME280;39866;48.638;-2.020;2022-11-15T14:11:08;99396.72;;;16.27;64.50
53960;BME280;39866;48.638;-2.020;2022-11-15T14:13:34;99373.63;;;16.24;64.69
53960;BME280;39866;48.638;-2.020;2022-11-15T14:16:17;99377.84;;;16.16;64.13
53960;BME280;39866;48.638;-2.020;2022-11-15T14:18:51;99382.94;;;16.31;64.41
53960;BME280;39866;48.638;-2.020;2022-11-15T14:21:18;99389.47;;;16.40;63.94
53960;BME280;39866;48.638;-2.020;2022-11-15T14:23:44;99395.41;;;16.32;64.05
53960;BME280;39866;48.638;-2.020;2022-11-15T14:26:31;99402.03;;;16.40;64.02
53960;BME280;39866;48.638;-2.020;2022-11-15T14:28:57;99461.63;;;16.21;68.81
53960;BME280;39866;48.638;-2.020;2022-11-15T14:31:22;99454.03;;;15.64;74.23
53960;BME280;39866;48.638;-2.020;2022-11-15T14:33:48;99448.81;;;15.22;75.77
53960;BME280;39866;48.638;-2.020;2022-11-15T14:36:19;99443.81;;;14.78;75.97
53960;BME280;39866;48.638;-2.020;2022-11-15T14:38:45;99432.38;;;14.47;77.85
53960;BME280;39866;48.638;-2.020;2022-11-15T14:41:25;99441.09;;;14.36;77.83